sensor_id;sensor_type;location;lat;lon;timestamp;pressure;altitude;pressure_sealevel;temperature;humidity
80693;BME280;70055;39.436;-77.514;2023-07-20T00:00:29;99346.34;;;27.93;38.48
80693;BME280;70055;39.436;-77.514;2023-07-20T00:03:11;99347.63;;;28.34;37.58
80693;BME280;70055;39.436;-77.514;2023-07-20T00:05:39;99345.84;;;28.77;37.70
80693;BME280;70055;39.436;-77.514;2023-07-20T00:08:08;99346.76;;;28.79;37.42
80693;BME280;70055;39.436;-77.514;2023-07-20T00:10:35;99346.92;;;28.70;37.69
80693;BME280;70055;39.436;-77.514;2023-07-20T00:13:03;99352.68;;;27.79;38.73
80693;BME280;70055;39.436;-77.514;2023-07-20T00:15:32;99346.90;;;27.94;38.45
80693;BME280;70055;39.436;-77.514;2023-07-20T00:17:59;99347.60;;;28.15;37.57
80693;BME280;70055;39.436;-77.514;2023-07-20T00:20:27;99350.68;;;27.92;37.92
80693;BME280;70055;39.436;-77.514;2023-07-20T00:22:55;99351.82;;;28.02;38.20
80693;BME280;70055;39.436;-77.514;2023-07-20T00:25:24;99348.75;;;28.03;38.54
80693;BME280;70055;39.436;-77.514;2023-07-20T00:27:53;99349.55;;;28.15;39.31
80693;BME280;70055;39.436;-77.514;2023-07-20T00:30:20;99351.45;;;27.47;40.97
80693;BME280;70055;39.436;-77.514;2023-07-20T00:32:49;99350.56;;;27.19;40.11
80693;BME280;70055;39.436;-77.514;2023-07-20T00:35:17;99351.70;;;26.98;40.67
80693;BME280;70055;39.436;-77.514;2023-07-20T00:37:46;99353.41;;;27.33;40.20
80693;BME280;70055;39.436;-77.514;2023-07-20T00:40:15;99354.08;;;27.09;40.62
80693;BME280;70055;39.436;-77.514;2023-07-20T00:42:43;99360.78;;;27.03;40.95
80693;BME280;70055;39.436;-77.514;2023-07-20T00:45:10;99368.73;;;25.47;43.52
80693;BME280;70055;39.436;-77.514;2023-07-20T00:47:39;99376.93;;;27.03;42.18
80693;BME280;70055;39.436;-77.514;2023-07-20T00:50:09;99383.21;;;26.73;42.35
80693;BME280;70055;39.436;-77.514;2023-07-20T00:52:38;99394.01;;;26.17;43.18
80693;BME280;70055;39.436;-77.514;2023-07-20T00:55:08;99401.60;;;23.39;50.29
80693;BME280;70055;39.436;-77.514;2023-07-20T00:57:37;99403.62;;;22.62;52.07
80693;BME280;70055;39.436;-77.514;2023-07-20T01:00:07;99407.35;;;23.52;50.11
80693;BME280;70055;39.436;-77.514;2023-07-20T01:02:36;99409.29;;;23.82;49.50
80693;BME280;70055;39.436;-77.514;2023-07-20T01:05:07;99414.84;;;24.62;47.99
80693;BME280;70055;39.436;-77.514;2023-07-20T01:07:38;99418.85;;;24.87;47.10
80693;BME280;70055;39.436;-77.514;2023-07-20T01:10:12;99421.81;;;25.27;46.26
80693;BME280;70055;39.436;-77.514;2023-07-20T01:12:45;99424.46;;;24.83;46.48
80693;BME280;70055;39.436;-77.514;2023-07-20T01:15:15;99423.82;;;23.83;49.40
80693;BME280;70055;39.436;-77.514;2023-07-20T01:17:44;99424.40;;;22.24;53.74
80693;BME280;70055;39.436;-77.514;2023-07-20T01:20:15;99423.29;;;22.30;53.39
80693;BME280;70055;39.436;-77.514;2023-07-20T01:23:04;99420.60;;;22.93;51.65
80693;BME280;70055;39.436;-77.514;2023-07-20T01:25:57;99418.54;;;23.81;49.78
80693;BME280;70055;39.436;-77.514;2023-07-20T01:28:44;99416.23;;;24.69;47.50
80693;BME280;70055;39.436;-77.514;2023-07-20T01:31:22;99425.28;;;23.96;49.45
80693;BME280;70055;39.436;-77.514;2023-07-20T01:33:55;99430.96;;;24.24;48.69
80693;BME280;70055;39.436;-77.514;2023-07-20T01:36:26;99435.76;;;24.70;48.15
80693;BME280;70055;39.436;-77.514;2023-07-20T01:38:55;99437.24;;;23.74;50.87
80693;BME280;70055;39.436;-77.514;2023-07-20T01:41:24;99433.60;;;22.52;53.78
80693;BME280;70055;39.436;-77.514;2023-07-20T01:43:52;99430.81;;;22.51;52.99
80693;BME280;70055;39.436;-77.514;2023-07-20T01:46:21;99430.53;;;23.40;50.89
80693;BME280;70055;39.436;-77.514;2023-07-20T01:48:49;99429.05;;;23.43;51.73
80693;BME280;70055;39.436;-77.514;2023-07-20T01:51:16;99432.64;;;23.53;51.05
80693;BME280;70055;39.436;-77.514;2023-07-20T01:53:46;99439.77;;;23.53;51.08
80693;BME280;70055;39.436;-77.514;2023-07-20T01:56:14;99446.86;;;22.88;52.24
80693;BME280;70055;39.436;-77.514;2023-07-20T01:58:41;99448.83;;;22.91;52.43
80693;BME280;70055;39.436;-77.514;2023-07-20T02:01:10;99450.62;;;23.46;51.75
80693;BME280;70055;39.436;-77.514;2023-07-20T02:03:39;99452.14;;;24.06;50.02
80693;BME280;70055;39.436;-77.514;2023-07-20T02:06:07;99457.56;;;24.01;49.44
80693;BME280;70055;39.436;-77.514;2023-07-20T02:08:35;99459.29;;;22.65;52.49
80693;BME280;70055;39.436;-77.514;2023-07-20T02:11:04;99462.33;;;22.39;53.84
80693;BME280;70055;39.436;-77.514;2023-07-20T02:13:31;99461.28;;;24.12;49.68
80693;BME280;70055;39.436;-77.514;2023-07-20T02:16:00;99456.85;;;24.82;49.27
80693;BME280;70055;39.436;-77.514;2023-07-20T02:18:28;99459.62;;;24.21;48.93
80693;BME280;70055;39.436;-77.514;2023-07-20T02:20:56;99463.34;;;24.05;49.58
80693;BME280;70055;39.436;-77.514;2023-07-20T02:23:24;99459.86;;;24.48;48.89
80693;BME280;70055;39.436;-77.514;2023-07-20T02:25:52;99457.32;;;24.82;48.51
80693;BME280;70055;39.436;-77.514;2023-07-20T02:28:21;99459.26;;;24.70;48.64
80693;BME280;70055;39.436;-77.514;2023-07-20T02:30:48;99462.69;;;24.24;49.06
80693;BME280;70055;39.436;-77.514;2023-07-20T02:33:16;99462.62;;;24.30;49.75
80693;BME280;70055;39.436;-77.514;2023-07-20T02:35:45;99457.79;;;22.75;52.44
80693;BME280;70055;39.436;-77.514;2023-07-20T02:38:12;99450.14;;;23.29;51.33
80693;BME280;70055;39.436;-77.514;2023-07-20T02:40:40;99452.91;;;23.98;50.41
80693;BME280;70055;39.436;-77.514;2023-07-20T02:43:08;99459.88;;;21.74;55.58
80693;BME280;70055;39.436;-77.514;2023-07-20T02:45:41;99446.61;;;24.02;51.10
80693;BME280;70055;39.436;-77.514;2023-07-20T02:48:08;99450.54;;;24.02;50.51
80693;BME280;70055;39.436;-77.514;2023-07-20T02:50:36;99464.30;;;22.99;53.04
80693;BME280;70055;39.436;-77.514;2023-07-20T02:53:04;99494.89;;;21.43;57.27
80693;BME280;70055;39.436;-77.514;2023-07-20T02:55:32;99505.15;;;19.45;64.55
80693;BME280;70055;39.436;-77.514;2023-07-20T02:58:01;99511.83;;;20.38;61.90
80693;BME280;70055;39.436;-77.514;2023-07-20T03:00:29;99508.34;;;19.61;67.56
80693;BME280;70055;39.436;-77.514;2023-07-20T03:02:57;99500.52;;;19.86;69.77
80693;BME280;70055;39.436;-77.514;2023-07-20T03:05:24;99498.41;;;20.09;68.49
80693;BME280;70055;39.436;-77.514;2023-07-20T03:07:53;99499.46;;;18.77;72.96
80693;BME280;70055;39.436;-77.514;2023-07-20T03:10:21;99489.49;;;19.20;73.62
80693;BME280;70055;39.436;-77.514;2023-07-20T03:12:50;99484.75;;;19.19;73.68
80693;BME280;70055;39.436;-77.514;2023-07-20T03:15:18;99480.55;;;19.01;73.52
80693;BME280;70055;39.436;-77.514;2023-07-20T03:17:47;99473.20;;;20.27;70.30
80693;BME280;70055;39.436;-77.514;2023-07-20T03:20:14;99476.10;;;21.80;65.06
80693;BME280;70055;39.436;-77.514;2023-07-20T03:22:42;99484.70;;;21.64;64.90
80693;BME280;70055;39.436;-77.514;2023-07-20T03:25:11;99481.63;;;22.62;61.84
80693;BME280;70055;39.436;-77.514;2023-07-20T03:27:40;99485.82;;;21.63;63.91
80693;BME280;70055;39.436;-77.514;2023-07-20T03:30:08;99487.01;;;21.71;62.79
80693;BME280;70055;39.436;-77.514;2023-07-20T03:32:37;99487.85;;;20.01;67.11
80693;BME280;70055;39.436;-77.514;2023-07-20T03:35:06;99488.61;;;20.93;65.69
80693;BME280;70055;39.436;-77.514;2023-07-20T03:37:34;99491.41;;;21.10;65.60
80693;BME280;70055;39.436;-77.514;2023-07-20T03:40:03;99496.89;;;21.58;64.30
80693;BME280;70055;39.436;-77.514;2023-07-20T03:42:31;99497.93;;;21.99;63.08
80693;BME280;70055;39.436;-77.514;2023-07-20T03:45:00;99503.59;;;22.22;63.05
80693;BME280;70055;39.436;-77.514;2023-07-20T03:47:28;99507.45;;;22.03;62.83
80693;BME280;70055;39.436;-77.514;2023-07-20T03:49:56;99501.93;;;20.81;66.57
80693;BME280;70055;39.436;-77.514;2023-07-20T03:52:24;99497.23;;;22.26;62.53
80693;BME280;70055;39.436;-77.514;2023-07-20T03:54:53;99497.39;;;22.19;62.32
80693;BME280;70055;39.436;-77.514;2023-07-20T03:57:20;99497.59;;;22.31;62.32
80693;BME280;70055;39.436;-77.514;2023-07-20T03:59:48;99505.97;;;21.95;62.62
80693;BME280;70055;39.436;-77.514;2023-07-20T04:02:17;99501.73;;;23.28;59.92
80693;BME280;70055;39.436;-77.514;2023-07-20T04:04:45;99502.56;;;23.82;58.08
80693;BME280;70055;39.436;-77.514;2023-07-20T04:07:12;99496.21;;;23.44;58.44
80693;BME280;70055;39.436;-77.514;2023-07-20T04:09:40;99501.02;;;21.56;63.82
80693;BME280;70055;39.436;-77.514;2023-07-20T04:12:08;99493.51;;;22.72;60.84
80693;BME280;70055;39.436;-77.514;2023-07-20T04:14:37;99496.80;;;21.69;63.54
80693;BME280;70055;39.436;-77.514;2023-07-20T04:17:05;99495.78;;;22.99;60.41
80693;BME280;70055;39.436;-77.514;2023-07-20T04:19:33;99493.58;;;23.13;60.03
80693;BME280;70055;39.436;-77.514;2023-07-20T04:22:01;99491.26;;;23.56;58.11
80693;BME280;70055;39.436;-77.514;2023-07-20T04:24:29;99503.02;;;22.47;59.54
80693;BME280;70055;39.436;-77.514;2023-07-20T04:26:57;99515.15;;;20.98;62.32
80693;BME280;70055;39.436;-77.514;2023-07-20T04:29:26;99518.54;;;19.61;66.16
80693;BME280;70055;39.436;-77.514;2023-07-20T04:31:54;99516.01;;;21.22;63.27
80693;BME280;70055;39.436;-77.514;2023-07-20T04:34:22;99521.04;;;21.40;61.64
80693;BME280;70055;39.436;-77.514;2023-07-20T04:36:49;99520.45;;;20.84;61.91
80693;BME280;70055;39.436;-77.514;2023-07-20T04:39:18;99524.73;;;20.48;63.74
80693;BME280;70055;39.436;-77.514;2023-07-20T04:41:46;99519.05;;;20.15;63.81
80693;BME280;70055;39.436;-77.514;2023-07-20T04:44:13;99516.98;;;20.65;62.91
80693;BME280;70055;39.436;-77.514;2023-07-20T04:46:41;99516.86;;;19.73;68.94
80693;BME280;70055;39.436;-77.514;2023-07-20T04:49:10;99517.57;;;20.07;68.80
80693;BME280;70055;39.436;-77.514;2023-07-20T04:51:38;99518.31;;;19.80;68.11
80693;BME280;70055;39.436;-77.514;2023-07-20T04:54:06;99521.15;;;21.84;62.48
80693;BME280;70055;39.436;-77.514;2023-07-20T04:56:34;99523.83;;;22.76;59.75
80693;BME280;70055;39.436;-77.514;2023-07-20T04:59:02;99518.41;;;22.32;60.29
80693;BME280;70055;39.436;-77.514;2023-07-20T05:01:30;99513.25;;;22.15;60.73
80693;BME280;70055;39.436;-77.514;2023-07-20T05:03:58;99509.78;;;21.97;60.62
80693;BME280;70055;39.436;-77.514;2023-07-20T05:06:27;99510.17;;;22.15;60.44
80693;BME280;70055;39.436;-77.514;2023-07-20T05:08:54;99509.22;;;21.73;61.91
80693;BME280;70055;39.436;-77.514;2023-07-20T05:11:23;99509.57;;;21.32;63.13
80693;BME280;70055;39.436;-77.514;2023-07-20T05:13:51;99513.39;;;21.86;61.26
80693;BME280;70055;39.436;-77.514;2023-07-20T05:16:19;99510.90;;;22.40;60.36
80693;BME280;70055;39.436;-77.514;2023-07-20T05:18:46;99503.72;;;22.85;58.84
80693;BME280;70055;39.436;-77.514;2023-07-20T05:21:15;99508.04;;;22.56;58.63
80693;BME280;70055;39.436;-77.514;2023-07-20T05:23:44;99514.98;;;22.02;59.23
80693;BME280;70055;39.436;-77.514;2023-07-20T05:26:12;99518.16;;;21.65;60.50
80693;BME280;70055;39.436;-77.514;2023-07-20T05:28:39;99518.59;;;22.34;57.65
80693;BME280;70055;39.436;-77.514;2023-07-20T05:31:07;99524.00;;;19.81;64.50
80693;BME280;70055;39.436;-77.514;2023-07-20T05:33:35;99522.57;;;21.66;60.10
80693;BME280;70055;39.436;-77.514;2023-07-20T05:36:03;99524.99;;;21.50;62.03
80693;BME280;70055;39.436;-77.514;2023-07-20T05:38:31;99531.24;;;20.95;62.95
80693;BME280;70055;39.436;-77.514;2023-07-20T05:41:00;99532.04;;;21.32;61.30
80693;BME280;70055;39.436;-77.514;2023-07-20T05:43:28;99529.49;;;21.55;60.41
80693;BME280;70055;39.436;-77.514;2023-07-20T05:45:56;99521.56;;;21.68;60.26
80693;BME280;70055;39.436;-77.514;2023-07-20T05:48:25;99517.91;;;21.61;60.00
80693;BME280;70055;39.436;-77.514;2023-07-20T05:50:53;99515.63;;;21.29;60.77
80693;BME280;70055;39.436;-77.514;2023-07-20T05:53:21;99520.45;;;21.67;60.60
80693;BME280;70055;39.436;-77.514;2023-07-20T05:55:52;99519.40;;;21.89;59.78
80693;BME280;70055;39.436;-77.514;2023-07-20T05:58:21;99518.64;;;22.01;59.69
80693;BME280;70055;39.436;-77.514;2023-07-20T06:00:49;99517.52;;;21.87;59.69
80693;BME280;70055;39.436;-77.514;2023-07-20T06:03:18;99522.97;;;20.70;62.04
80693;BME280;70055;39.436;-77.514;2023-07-20T06:05:46;99521.43;;;20.67;60.99
80693;BME280;70055;39.436;-77.514;2023-07-20T06:08:14;99522.68;;;20.16;62.66
80693;BME280;70055;39.436;-77.514;2023-07-20T06:10:42;99529.13;;;19.66;63.76
80693;BME280;70055;39.436;-77.514;2023-07-20T06:13:11;99532.13;;;19.98;64.16
80693;BME280;70055;39.436;-77.514;2023-07-20T06:15:39;99533.03;;;20.28;63.32
80693;BME280;70055;39.436;-77.514;2023-07-20T06:18:07;99528.57;;;19.31;65.01
80693;BME280;70055;39.436;-77.514;2023-07-20T06:20:36;99524.16;;;19.11;66.96
80693;BME280;70055;39.436;-77.514;2023-07-20T06:23:04;99522.56;;;20.21;64.10
80693;BME280;70055;39.436;-77.514;2023-07-20T06:25:32;99510.54;;;21.00;61.41
80693;BME280;70055;39.436;-77.514;2023-07-20T06:28:00;99504.02;;;20.56;63.72
80693;BME280;70055;39.436;-77.514;2023-07-20T06:30:27;99496.25;;;20.70;62.18
80693;BME280;70055;39.436;-77.514;2023-07-20T06:32:55;99492.48;;;20.77;62.64
80693;BME280;70055;39.436;-77.514;2023-07-20T06:35:23;99481.31;;;20.60;63.28
80693;BME280;70055;39.436;-77.514;2023-07-20T06:37:51;99484.55;;;21.04;61.24
80693;BME280;70055;39.436;-77.514;2023-07-20T06:40:19;99486.45;;;21.21;60.66
80693;BME280;70055;39.436;-77.514;2023-07-20T06:42:48;99486.35;;;21.30;60.96
80693;BME280;70055;39.436;-77.514;2023-07-20T06:45:16;99487.42;;;21.07;60.43
80693;BME280;70055;39.436;-77.514;2023-07-20T06:47:43;99483.18;;;20.15;62.11
80693;BME280;70055;39.436;-77.514;2023-07-20T06:50:12;99481.19;;;20.46;61.27
80693;BME280;70055;39.436;-77.514;2023-07-20T06:52:40;99484.04;;;20.43;60.79
80693;BME280;70055;39.436;-77.514;2023-07-20T06:55:09;99485.91;;;19.18;63.35
80693;BME280;70055;39.436;-77.514;2023-07-20T06:57:37;99484.85;;;20.10;61.98
80693;BME280;70055;39.436;-77.514;2023-07-20T07:00:06;99481.66;;;20.12;60.44
80693;BME280;70055;39.436;-77.514;2023-07-20T07:02:35;99477.50;;;21.03;58.90
80693;BME280;70055;39.436;-77.514;2023-07-20T07:05:03;99481.06;;;20.12;62.27
80693;BME280;70055;39.436;-77.514;2023-07-20T07:07:31;99477.81;;;20.04;63.33
80693;BME280;70055;39.436;-77.514;2023-07-20T07:10:01;99471.92;;;20.78;61.11
80693;BME280;70055;39.436;-77.514;2023-07-20T07:12:30;99469.21;;;20.80;60.10
80693;BME280;70055;39.436;-77.514;2023-07-20T07:14:58;99479.50;;;20.00;63.42
80693;BME280;70055;39.436;-77.514;2023-07-20T07:17:27;99478.74;;;20.44;61.12
80693;BME280;70055;39.436;-77.514;2023-07-20T07:19:55;99482.13;;;19.61;62.07
80693;BME280;70055;39.436;-77.514;2023-07-20T07:22:23;99474.38;;;19.80;62.01
80693;BME280;70055;39.436;-77.514;2023-07-20T07:24:51;99471.29;;;20.31;61.72
80693;BME280;70055;39.436;-77.514;2023-07-20T07:27:19;99475.02;;;21.14;59.57
80693;BME280;70055;39.436;-77.514;2023-07-20T07:29:47;99476.50;;;21.40;59.68
80693;BME280;70055;39.436;-77.514;2023-07-20T07:32:16;99475.67;;;20.60;60.62
80693;BME280;70055;39.436;-77.514;2023-07-20T07:34:45;99480.47;;;20.83;59.97
80693;BME280;70055;39.436;-77.514;2023-07-20T07:37:13;99484.31;;;18.83;62.64
80693;BME280;70055;39.436;-77.514;2023-07-20T07:39:41;99483.60;;;19.91;60.50
80693;BME280;70055;39.436;-77.514;2023-07-20T07:42:09;99481.19;;;19.42;61.26
80693;BME280;70055;39.436;-77.514;2023-07-20T07:44:38;99482.49;;;19.36;61.31
80693;BME280;70055;39.436;-77.514;2023-07-20T07:47:06;99484.36;;;19.43;62.39
80693;BME280;70055;39.436;-77.514;2023-07-20T07:49:34;99482.59;;;20.10;60.33
80693;BME280;70055;39.436;-77.514;2023-07-20T07:52:02;99474.59;;;20.55;59.38
80693;BME280;70055;39.436;-77.514;2023-07-20T07:54:29;99467.35;;;20.40;60.19
80693;BME280;70055;39.436;-77.514;2023-07-20T07:56:58;99471.76;;;19.82;61.49
80693;BME280;70055;39.436;-77.514;2023-07-20T07:59:26;99476.78;;;19.88;61.89
80693;BME280;70055;39.436;-77.514;2023-07-20T08:01:54;99476.40;;;20.50;59.97
80693;BME280;70055;39.436;-77.514;2023-07-20T08:04:23;99476.90;;;20.69;59.94
80693;BME280;70055;39.436;-77.514;2023-07-20T08:06:51;99477.56;;;19.66;59.84
80693;BME280;70055;39.436;-77.514;2023-07-20T08:09:19;99476.52;;;19.82;59.51
80693;BME280;70055;39.436;-77.514;2023-07-20T08:11:47;99472.06;;;20.29;58.84
80693;BME280;70055;39.436;-77.514;2023-07-20T08:14:14;99470.73;;;20.06;59.14
80693;BME280;70055;39.436;-77.514;2023-07-20T08:16:42;99467.78;;;20.35;58.67
80693;BME280;70055;39.436;-77.514;2023-07-20T08:19:10;99462.66;;;20.27;58.78
80693;BME280;70055;39.436;-77.514;2023-07-20T08:21:38;99463.18;;;19.43;60.70
80693;BME280;70055;39.436;-77.514;2023-07-20T08:24:07;99464.52;;;19.36;60.82
80693;BME280;70055;39.436;-77.514;2023-07-20T08:26:34;99460.30;;;19.92;59.60
80693;BME280;70055;39.436;-77.514;2023-07-20T08:29:02;99465.37;;;19.84;60.45
80693;BME280;70055;39.436;-77.514;2023-07-20T08:31:30;99466.36;;;19.72;61.19
80693;BME280;70055;39.436;-77.514;2023-07-20T08:33:58;99465.81;;;19.95;60.58
80693;BME280;70055;39.436;-77.514;2023-07-20T08:36:26;99466.18;;;19.68;61.91
80693;BME280;70055;39.436;-77.514;2023-07-20T08:38:54;99466.22;;;18.81;63.09
80693;BME280;70055;39.436;-77.514;2023-07-20T08:41:22;99460.82;;;20.45;59.91
80693;BME280;70055;39.436;-77.514;2023-07-20T08:43:51;99462.75;;;20.56;58.67
80693;BME280;70055;39.436;-77.514;2023-07-20T08:46:23;99464.01;;;20.01;59.60
80693;BME280;70055;39.436;-77.514;2023-07-20T08:48:53;99467.90;;;20.04;59.78
80693;BME280;70055;39.436;-77.514;2023-07-20T08:51:22;99469.98;;;21.03;58.47
80693;BME280;70055;39.436;-77.514;2023-07-20T08:53:51;99474.47;;;20.24;60.65
80693;BME280;70055;39.436;-77.514;2023-07-20T08:56:20;99468.36;;;20.56;59.26
80693;BME280;70055;39.436;-77.514;2023-07-20T08:58:49;99465.80;;;19.99;60.83
80693;BME280;70055;39.436;-77.514;2023-07-20T09:01:18;99460.61;;;20.58;59.21
80693;BME280;70055;39.436;-77.514;2023-07-20T09:03:47;99455.67;;;20.37;58.85
80693;BME280;70055;39.436;-77.514;2023-07-20T09:06:15;99457.39;;;20.39;59.46
80693;BME280;70055;39.436;-77.514;2023-07-20T09:08:44;99459.05;;;20.17;59.84
80693;BME280;70055;39.436;-77.514;2023-07-20T09:11:12;99459.04;;;20.18;59.99
80693;BME280;70055;39.436;-77.514;2023-07-20T09:13:40;99459.22;;;20.07;60.80
80693;BME280;70055;39.436;-77.514;2023-07-20T09:16:08;99456.11;;;20.30;60.68
80693;BME280;70055;39.436;-77.514;2023-07-20T09:18:36;99459.85;;;20.07;61.97
80693;BME280;70055;39.436;-77.514;2023-07-20T09:21:05;99462.16;;;20.06;62.66
80693;BME280;70055;39.436;-77.514;2023-07-20T09:23:34;99465.90;;;20.53;61.02
80693;BME280;70055;39.436;-77.514;2023-07-20T09:26:10;99472.97;;;20.61;60.68
80693;BME280;70055;39.436;-77.514;2023-07-20T09:28:42;99476.45;;;20.86;59.43
80693;BME280;70055;39.436;-77.514;2023-07-20T09:31:16;99481.73;;;20.46;60.59
80693;BME280;70055;39.436;-77.514;2023-07-20T09:33:44;99487.09;;;20.31;61.29
80693;BME280;70055;39.436;-77.514;2023-07-20T09:36:12;99492.72;;;20.38;60.61
80693;BME280;70055;39.436;-77.514;2023-07-20T09:38:42;99495.60;;;19.86;62.74
80693;BME280;70055;39.436;-77.514;2023-07-20T09:41:14;99494.36;;;20.46;60.63
80693;BME280;70055;39.436;-77.514;2023-07-20T09:43:43;99495.11;;;20.08;61.02
80693;BME280;70055;39.436;-77.514;2023-07-20T09:46:11;99492.44;;;20.07;60.94
80693;BME280;70055;39.436;-77.514;2023-07-20T09:48:39;99497.22;;;20.68;59.69
80693;BME280;70055;39.436;-77.514;2023-07-20T09:51:07;99503.50;;;20.51;60.14
80693;BME280;70055;39.436;-77.514;2023-07-20T09:53:36;99512.99;;;20.70;59.19
80693;BME280;70055;39.436;-77.514;2023-07-20T09:56:05;99514.63;;;20.86;59.78
80693;BME280;70055;39.436;-77.514;2023-07-20T09:58:34;99518.08;;;20.13;61.57
80693;BME280;70055;39.436;-77.514;2023-07-20T10:01:03;99511.95;;;20.92;59.48
80693;BME280;70055;39.436;-77.514;2023-07-20T10:03:37;99514.24;;;19.90;61.78
80693;BME280;70055;39.436;-77.514;2023-07-20T10:06:08;99510.67;;;20.28;60.29
80693;BME280;70055;39.436;-77.514;2023-07-20T10:08:39;99506.11;;;20.88;59.06
80693;BME280;70055;39.436;-77.514;2023-07-20T10:11:09;99505.28;;;20.96;58.53
80693;BME280;70055;39.436;-77.514;2023-07-20T10:13:39;99503.54;;;20.26;59.02
80693;BME280;70055;39.436;-77.514;2023-07-20T10:16:11;99504.27;;;19.85;61.77
80693;BME280;70055;39.436;-77.514;2023-07-20T10:18:46;99504.13;;;20.39;59.70
80693;BME280;70055;39.436;-77.514;2023-07-20T10:21:17;99504.86;;;20.54;59.31
80693;BME280;70055;39.436;-77.514;2023-07-20T10:23:47;99503.83;;;20.51;59.59
80693;BME280;70055;39.436;-77.514;2023-07-20T10:26:15;99499.89;;;20.88;59.08
80693;BME280;70055;39.436;-77.514;2023-07-20T10:28:44;99504.64;;;20.50;60.24
80693;BME280;70055;39.436;-77.514;2023-07-20T10:31:14;99508.49;;;20.13;61.69
80693;BME280;70055;39.436;-77.514;2023-07-20T10:33:43;99507.69;;;19.51;63.60
80693;BME280;70055;39.436;-77.514;2023-07-20T10:36:11;99508.06;;;20.78;59.71
80693;BME280;70055;39.436;-77.514;2023-07-20T10:38:41;99514.57;;;20.99;59.51
80693;BME280;70055;39.436;-77.514;2023-07-20T10:41:22;99517.48;;;21.09;59.41
80693;BME280;70055;39.436;-77.514;2023-07-20T10:43:58;99516.99;;;21.03;59.08
80693;BME280;70055;39.436;-77.514;2023-07-20T10:46:43;99514.40;;;20.73;60.13
80693;BME280;70055;39.436;-77.514;2023-07-20T10:49:11;99515.04;;;20.67;60.29
80693;BME280;70055;39.436;-77.514;2023-07-20T10:51:41;99517.87;;;20.84;61.17
80693;BME280;70055;39.436;-77.514;2023-07-20T10:54:34;99517.08;;;22.04;58.85
80693;BME280;70055;39.436;-77.514;2023-07-20T10:57:30;99520.08;;;21.80;58.16
80693;BME280;70055;39.436;-77.514;2023-07-20T11:00:13;99521.03;;;21.17;59.64
80693;BME280;70055;39.436;-77.514;2023-07-20T11:02:45;99522.61;;;21.49;58.49
80693;BME280;70055;39.436;-77.514;2023-07-20T11:05:46;99528.69;;;21.42;58.74
80693;BME280;70055;39.436;-77.514;2023-07-20T11:08:38;99533.74;;;21.65;58.94
80693;BME280;70055;39.436;-77.514;2023-07-20T11:11:23;99539.00;;;21.64;58.76
80693;BME280;70055;39.436;-77.514;2023-07-20T11:13:59;99536.54;;;21.87;57.56
80693;BME280;70055;39.436;-77.514;2023-07-20T11:16:36;99536.63;;;21.47;59.05
80693;BME280;70055;39.436;-77.514;2023-07-20T11:19:06;99535.92;;;20.52;60.36
80693;BME280;70055;39.436;-77.514;2023-07-20T11:21:38;99541.08;;;19.86;63.42
80693;BME280;70055;39.436;-77.514;2023-07-20T11:24:09;99541.32;;;21.68;60.49
80693;BME280;70055;39.436;-77.514;2023-07-20T11:26:46;99539.34;;;22.18;58.28
80693;BME280;70055;39.436;-77.514;2023-07-20T11:29:15;99543.54;;;21.48;60.93
80693;BME280;70055;39.436;-77.514;2023-07-20T11:31:45;99540.91;;;20.96;62.44
80693;BME280;70055;39.436;-77.514;2023-07-20T11:34:17;99540.48;;;22.57;59.56
80693;BME280;70055;39.436;-77.514;2023-07-20T11:36:48;99537.87;;;22.74;58.32
80693;BME280;70055;39.436;-77.514;2023-07-20T11:39:18;99539.38;;;22.82;56.15
80693;BME280;70055;39.436;-77.514;2023-07-20T11:41:48;99544.98;;;21.71;58.15
80693;BME280;70055;39.436;-77.514;2023-07-20T11:44:17;99544.10;;;21.71;59.33
80693;BME280;70055;39.436;-77.514;2023-07-20T11:46:45;99541.53;;;20.93;61.21
80693;BME280;70055;39.436;-77.514;2023-07-20T11:49:14;99539.83;;;22.90;56.85
80693;BME280;70055;39.436;-77.514;2023-07-20T11:51:43;99547.27;;;20.92;61.10
80693;BME280;70055;39.436;-77.514;2023-07-20T11:54:12;99552.74;;;21.16;62.28
80693;BME280;70055;39.436;-77.514;2023-07-20T11:56:42;99556.30;;;21.82;59.45
80693;BME280;70055;39.436;-77.514;2023-07-20T11:59:11;99555.12;;;23.15;57.93
80693;BME280;70055;39.436;-77.514;2023-07-20T12:01:40;99556.53;;;23.27;57.55
80693;BME280;70055;39.436;-77.514;2023-07-20T12:04:08;99553.74;;;24.27;56.45
80693;BME280;70055;39.436;-77.514;2023-07-20T12:06:37;99559.38;;;22.32;58.80
80693;BME280;70055;39.436;-77.514;2023-07-20T12:09:05;99554.07;;;23.37;55.74
80693;BME280;70055;39.436;-77.514;2023-07-20T12:11:34;99559.64;;;21.99;60.06
80693;BME280;70055;39.436;-77.514;2023-07-20T12:14:03;99555.41;;;22.13;57.93
80693;BME280;70055;39.436;-77.514;2023-07-20T12:16:32;99552.55;;;21.06;61.32
80693;BME280;70055;39.436;-77.514;2023-07-20T12:19:02;99551.32;;;22.77;57.06
80693;BME280;70055;39.436;-77.514;2023-07-20T12:21:32;99550.05;;;21.69;57.44
80693;BME280;70055;39.436;-77.514;2023-07-20T12:24:01;99544.83;;;22.44;57.51
80693;BME280;70055;39.436;-77.514;2023-07-20T12:26:30;99545.93;;;22.41;54.85
80693;BME280;70055;39.436;-77.514;2023-07-20T12:29:00;99543.99;;;21.27;59.12
80693;BME280;70055;39.436;-77.514;2023-07-20T12:31:28;99541.32;;;22.07;56.60
80693;BME280;70055;39.436;-77.514;2023-07-20T12:33:58;99534.91;;;23.64;55.58
80693;BME280;70055;39.436;-77.514;2023-07-20T12:36:27;99532.86;;;25.77;52.67
80693;BME280;70055;39.436;-77.514;2023-07-20T12:38:56;99536.18;;;22.57;55.09
80693;BME280;70055;39.436;-77.514;2023-07-20T12:41:24;99537.70;;;21.88;56.93
80693;BME280;70055;39.436;-77.514;2023-07-20T12:43:52;99535.51;;;22.74;57.17
80693;BME280;70055;39.436;-77.514;2023-07-20T12:46:20;99524.95;;;23.78;55.51
80693;BME280;70055;39.436;-77.514;2023-07-20T12:48:49;99532.12;;;21.31;60.20
80693;BME280;70055;39.436;-77.514;2023-07-20T12:51:17;99525.21;;;23.19;54.11